Mudcat — WCY8255 — position and weather

sailwx.info

Track history (hours):
 
Tides and Currents Weather Stations Pressure Air Temp Water Temp Dewpoint Dewpoint Depression Visibility Wind Speed Wind Dir Waves Ship Positions

Mudcat

Owner: TAURUS MARINE, SAN FRANCISCO, CA. More information available from US FCC via Universal Licensing System and Coast Guard Vessel Documentation Center.

Last reported at 2017-Nov-09 22:38 UTC. Time now 2017-Nov-17 19:46 UTC.
Position N 47°34' W 122°21'.

Length 22 m; draft 2 m.

Type: Tug. MMSI: 366969750.

Date/timePositionNaut miles runAvg speedWind from/ knotsBaromVisibWave heightAir tempDewpointWater temp
2017-Nov-09 22:38N 47°34' W 122°21'0 1.7
2017-Nov-09 22:30N 47°34' W 122°21'4 7.7
2017-Nov-09 22:00N 47°37' W 122°24'4 2.3
2017-Nov-09 20:30N 47°39' W 122°20'3 5.2
2017-Nov-09 19:57N 47°39' W 122°16'1 1.2
2017-Nov-09 19:20N 47°38' W 122°15'0 1.5
2017-Nov-09 19:00N 47°38' W 122°15'2 1.1
2017-Nov-09 17:39N 47°39' W 122°17'1 6.2
2017-Nov-09 17:30N 47°39' W 122°19'1 0.1
2017-Nov-08 18:15N 47°39' W 122°20'0 0.0
2017-Nov-08 18:00N 47°39' W 122°20'0 0.0
2017-Nov-08 17:30N 47°39' W 122°20'0 0.0
2017-Nov-08 16:19N 47°39' W 122°20'0 0.0
2017-Nov-08 14:36N 47°39' W 122°20'0 0.1
2017-Nov-08 14:30N 47°39' W 122°20'0 0.0
2017-Nov-07 22:31N 47°39' W 122°20'0 0.0
2017-Nov-07 22:30N 47°39' W 122°20'0 0.0
2017-Nov-07 14:59N 47°39' W 122°20'  
Track history (hours):
 
Tides and Currents Weather Stations Pressure Air Temp Water Temp Dewpoint Dewpoint Depression Visibility Wind Speed Wind Dir Waves Ship Positions

Mudcat

Owner: TAURUS MARINE, SAN FRANCISCO, CA. More information available from US FCC via Universal Licensing System and Coast Guard Vessel Documentation Center.

Last reported at 2017-Nov-09 22:38 UTC. Time now 2017-Nov-17 19:46 UTC.
Position N 47°34' W 122°21'.

Length 22 m; draft 2 m.

Type: Tug. MMSI: 366969750.

Date/timePositionNaut miles runAvg speedWind from/ knotsBaromVisibWave heightAir tempDewpointWater temp
2017-Nov-09 22:38N 47°34' W 122°21'0 1.7
2017-Nov-09 22:30N 47°34' W 122°21'4 7.7
2017-Nov-09 22:00N 47°37' W 122°24'4 2.3
2017-Nov-09 20:30N 47°39' W 122°20'3 5.2
2017-Nov-09 19:57N 47°39' W 122°16'1 1.2
2017-Nov-09 19:20N 47°38' W 122°15'0 1.5
2017-Nov-09 19:00N 47°38' W 122°15'2 1.1
2017-Nov-09 17:39N 47°39' W 122°17'1 6.2
2017-Nov-09 17:30N 47°39' W 122°19'1 0.1
2017-Nov-08 18:15N 47°39' W 122°20'0 0.0
2017-Nov-08 18:00N 47°39' W 122°20'0 0.0
2017-Nov-08 17:30N 47°39' W 122°20'0 0.0
2017-Nov-08 16:19N 47°39' W 122°20'0 0.0
2017-Nov-08 14:36N 47°39' W 122°20'0 0.1
2017-Nov-08 14:30N 47°39' W 122°20'0 0.0
2017-Nov-07 22:31N 47°39' W 122°20'0 0.0
2017-Nov-07 22:30N 47°39' W 122°20'0 0.0
2017-Nov-07 14:59N 47°39' W 122°20'  

Dump ship's entire track history